createdAt,value
2022-10-07T00:03:27.275Z,23.88
2022-10-07T00:08:21.020Z,26.50
2022-10-07T00:13:15.318Z,27.15
2022-10-07T00:18:09.993Z,26.90
2022-10-07T00:23:03.184Z,27.35
2022-10-07T00:27:57.984Z,25.42
2022-10-07T00:32:52.814Z,26.83
2022-10-07T00:37:48.371Z,29.00
2022-10-07T00:42:41.717Z,27.83
2022-10-07T00:47:35.960Z,31.15
2022-10-07T00:52:30.781Z,29.05
2022-10-07T00:57:26.210Z,28.33
2022-10-07T01:02:20.942Z,29.45
2022-10-07T01:07:19.055Z,28.42
2022-10-07T01:12:30.700Z,29.83
2022-10-07T01:17:37.462Z,28.67
2022-10-07T01:22:39.734Z,30.80
2022-10-07T01:27:32.788Z,35.35
2022-10-07T01:32:37.371Z,34.97
2022-10-07T01:37:36.485Z,34.13
2022-10-07T01:47:23.864Z,35.65
2022-10-07T01:52:34.020Z,33.42
2022-10-07T01:57:55.861Z,32.92
2022-10-07T02:03:18.810Z,32.97
2022-10-07T02:08:43.610Z,31.00
2022-10-07T02:14:01.827Z,30.70
2022-10-07T02:19:00.134Z,30.98
2022-10-07T02:23:55.500Z,33.22
2022-10-07T02:28:53.063Z,32.97
2022-10-07T02:33:48.835Z,30.45
2022-10-07T02:38:43.033Z,31.23
2022-10-07T02:43:42.968Z,32.70
2022-10-07T02:49:00.563Z,29.80
2022-10-07T02:53:54.600Z,28.77
2022-10-07T02:58:50.523Z,28.45
2022-10-07T03:03:44.166Z,27.63
2022-10-07T03:08:38.048Z,26.45
2022-10-07T03:13:36.153Z,27.10
2022-10-07T03:18:30.872Z,26.10
2022-10-07T03:23:53.459Z,25.60
2022-10-07T03:28:50.780Z,26.35
2022-10-07T03:33:47.143Z,27.40
2022-10-07T03:38:40.754Z,26.52
2022-10-07T03:43:36.130Z,26.00
2022-10-07T03:48:32.567Z,27.10
2022-10-07T03:53:30.118Z,27.98
2022-10-07T03:58:26.580Z,30.08
2022-10-07T04:03:20.285Z,28.42
2022-10-07T04:08:18.166Z,27.90
2022-10-07T04:13:11.860Z,28.63
2022-10-07T04:18:07.912Z,29.50
2022-10-07T04:23:01.457Z,28.95
2022-10-07T04:27:59.855Z,29.75
2022-10-07T04:32:54.203Z,29.98
2022-10-07T04:37:51.703Z,27.35
2022-10-07T04:43:04.627Z,28.77
2022-10-07T04:47:58.406Z,28.38
2022-10-07T04:52:52.156Z,27.55
2022-10-07T04:57:46.518Z,25.92
2022-10-07T05:02:40.908Z,26.50
2022-10-07T05:07:35.349Z,26.42
2022-10-07T05:12:29.385Z,29.20
2022-10-07T05:17:24.575Z,27.30
2022-10-07T05:22:18.759Z,27.83
2022-10-07T05:27:14.795Z,22.48
2022-10-07T05:32:10.124Z,25.15
2022-10-07T05:37:03.654Z,28.20
2022-10-07T05:41:58.616Z,30.35
2022-10-07T05:46:56.951Z,29.83
2022-10-07T05:51:50.158Z,30.80
2022-10-07T05:56:42.952Z,29.42
2022-10-07T06:01:36.816Z,31.35
2022-10-07T06:06:37.331Z,31.88
2022-10-07T06:11:53.058Z,30.65
2022-10-07T06:16:46.771Z,29.80
2022-10-07T06:21:41.018Z,27.70
2022-10-07T06:26:35.343Z,30.88
2022-10-07T06:31:29.345Z,28.15
2022-10-07T06:36:28.365Z,28.75
2022-10-07T06:41:24.453Z,30.38
2022-10-07T06:46:30.261Z,28.90
2022-10-07T06:51:23.818Z,30.30
2022-10-07T06:56:17.019Z,31.98
2022-10-07T07:01:10.872Z,30.90
2022-10-07T07:06:04.908Z,32.15
2022-10-07T07:11:28.478Z,29.45
2022-10-07T07:16:27.196Z,29.83
2022-10-07T07:21:21.211Z,29.05
2022-10-07T07:26:15.411Z,27.60
2022-10-07T07:31:11.262Z,30.67
2022-10-07T07:36:25.588Z,29.30
2022-10-07T07:41:22.356Z,30.85
2022-10-07T07:46:15.538Z,28.23
2022-10-07T07:51:09.625Z,29.38
2022-10-07T07:56:03.696Z,29.08
2022-10-07T08:01:27.142Z,28.13
2022-10-07T08:06:22.057Z,27.67
2022-10-07T08:11:18.043Z,27.67
2022-10-07T08:16:15.289Z,27.17
2022-10-07T08:21:11.412Z,28.13
2022-10-07T08:26:05.794Z,25.55
2022-10-07T08:31:28.250Z,27.45
2022-10-07T08:36:23.161Z,26.88
2022-10-07T08:41:50.566Z,25.00
2022-10-07T08:46:55.772Z,22.50
2022-10-07T08:52:17.607Z,22.15
2022-10-07T08:57:23.006Z,23.90
2022-10-07T09:02:28.286Z,23.83
2022-10-07T09:07:33.109Z,22.67
2022-10-07T09:12:42.950Z,22.58
2022-10-07T09:17:40.341Z,22.60
2022-10-07T09:22:38.866Z,23.08
2022-10-07T09:27:34.073Z,21.90
2022-10-07T09:32:27.827Z,21.00
2022-10-07T09:37:22.844Z,22.13
2022-10-07T09:42:30.708Z,21.42
2022-10-07T09:47:26.868Z,19.48
2022-10-07T09:52:23.724Z,20.48
2022-10-07T09:57:31.374Z,20.00
2022-10-07T10:02:27.548Z,18.17
2022-10-07T10:07:38.107Z,17.35
2022-10-07T10:12:37.126Z,16.67
2022-10-07T10:17:38.159Z,16.48
2022-10-07T10:22:32.510Z,13.73
2022-10-07T10:27:35.867Z,15.52
2022-10-07T10:32:41.101Z,13.57
2022-10-07T10:38:05.786Z,15.77
2022-10-07T10:43:26.680Z,14.57
2022-10-07T10:48:36.419Z,13.18
2022-10-07T10:53:31.636Z,9.60
2022-10-07T10:58:45.019Z,11.20
2022-10-07T11:03:52.212Z,6.07
2022-10-07T11:08:48.245Z,7.40
2022-10-07T11:13:49.031Z,10.40
2022-10-07T11:18:46.612Z,9.30
2022-10-07T11:24:04.634Z,7.05
2022-10-07T11:29:19.155Z,5.65
2022-10-07T11:34:21.299Z,6.80
2022-10-07T11:39:15.249Z,8.23
2022-10-07T11:44:16.888Z,8.15
2022-10-07T11:49:35.743Z,8.02
2022-10-07T11:54:31.131Z,9.57
2022-10-07T12:00:00.595Z,11.23
2022-10-07T12:04:58.361Z,11.80
2022-10-07T12:10:06.520Z,11.73
2022-10-07T12:15:04.441Z,9.70
2022-10-07T12:20:47.190Z,9.52
2022-10-07T12:25:45.375Z,8.65
2022-10-07T12:30:43.073Z,9.20
2022-10-07T12:35:48.767Z,9.90
2022-10-07T12:40:51.796Z,9.70
2022-10-07T12:45:45.358Z,9.50
2022-10-07T12:50:41.499Z,10.00
2022-10-07T12:55:38.873Z,9.88
2022-10-07T13:00:37.234Z,9.07
2022-10-07T13:06:11.289Z,9.30
2022-10-07T13:11:16.477Z,9.30
2022-10-07T13:16:20.828Z,9.00
2022-10-07T13:21:20.476Z,10.65
2022-10-07T13:26:16.045Z,7.55
2022-10-07T13:31:22.419Z,8.80
2022-10-07T13:36:29.433Z,7.88
2022-10-07T13:41:30.300Z,8.38
2022-10-07T13:46:26.539Z,10.20
2022-10-07T13:51:43.595Z,7.60
2022-10-07T13:56:41.310Z,8.93
2022-10-07T14:01:37.801Z,8.98
2022-10-07T14:07:01.424Z,9.68
2022-10-07T14:11:57.373Z,7.68
2022-10-07T14:16:57.565Z,10.35
2022-10-07T14:21:52.725Z,9.65
2022-10-07T14:26:47.325Z,7.97
2022-10-07T14:32:00.346Z,8.98
2022-10-07T14:37:15.226Z,8.32
2022-10-07T14:42:13.547Z,9.13
2022-10-07T14:47:24.402Z,8.65
2022-10-07T14:52:24.124Z,10.55
2022-10-07T14:57:22.198Z,8.15
2022-10-07T15:02:15.969Z,8.98
2022-10-07T15:07:10.661Z,9.73
2022-10-07T15:12:05.593Z,9.25
2022-10-07T15:16:59.379Z,10.82
2022-10-07T15:21:53.845Z,10.13
2022-10-07T15:26:48.227Z,8.65
2022-10-07T15:31:43.318Z,9.32
2022-10-07T15:36:37.826Z,11.15
2022-10-07T15:41:37.657Z,9.43
2022-10-07T15:46:32.160Z,9.43
2022-10-07T15:51:26.912Z,8.82
2022-10-07T15:56:21.375Z,10.43
2022-10-07T16:01:15.890Z,10.45
2022-10-07T16:06:11.984Z,9.65
2022-10-07T16:11:08.619Z,8.57
2022-10-07T16:16:07.174Z,9.05
2022-10-07T16:21:32.621Z,8.45
2022-10-07T16:26:30.090Z,10.07
2022-10-07T16:31:24.230Z,8.48
2022-10-07T16:36:18.138Z,8.55
2022-10-07T16:41:11.554Z,8.48
2022-10-07T16:46:08.512Z,9.10
2022-10-07T16:51:02.456Z,7.95
2022-10-07T16:55:56.885Z,9.25
2022-10-07T17:00:50.080Z,8.15
2022-10-07T17:05:44.088Z,9.35
2022-10-07T17:10:37.611Z,12.10
2022-10-07T17:15:31.790Z,11.20
2022-10-07T17:20:28.354Z,11.35
2022-10-07T17:25:22.661Z,10.68
2022-10-07T17:30:17.079Z,9.95
2022-10-07T17:35:11.157Z,11.02
2022-10-07T17:40:05.528Z,10.75
2022-10-07T17:45:00.991Z,11.43
2022-10-07T17:49:54.845Z,10.13
2022-10-07T17:54:50.868Z,10.45
2022-10-07T17:59:44.960Z,11.25
2022-10-07T18:04:39.723Z,10.68
2022-10-07T18:09:34.394Z,9.88
2022-10-07T18:14:47.676Z,10.43
2022-10-07T18:19:45.654Z,11.05
2022-10-07T18:24:38.681Z,10.10
2022-10-07T18:29:39.766Z,10.38
2022-10-07T18:34:33.828Z,11.63
2022-10-07T18:39:30.551Z,10.43
2022-10-07T18:44:24.022Z,8.13
2022-10-07T18:49:18.037Z,8.48
2022-10-07T18:54:14.791Z,10.55
2022-10-07T18:59:13.157Z,11.80
2022-10-07T19:04:08.469Z,12.05
2022-10-07T19:09:03.365Z,11.23
2022-10-07T19:13:58.968Z,11.75
2022-10-07T19:18:53.806Z,10.85
2022-10-07T19:23:51.829Z,10.48
2022-10-07T19:28:46.887Z,9.57
2022-10-07T19:33:40.280Z,11.95
2022-10-07T19:38:34.392Z,13.23
2022-10-07T19:43:28.633Z,12.70
2022-10-07T19:48:23.419Z,12.10
2022-10-07T19:53:17.277Z,12.15
2022-10-07T19:58:10.552Z,13.75
2022-10-07T20:03:04.491Z,12.55
2022-10-07T20:07:59.714Z,11.90
2022-10-07T20:12:54.057Z,13.00
2022-10-07T20:17:49.866Z,12.85
2022-10-07T20:22:48.545Z,11.30
2022-10-07T20:27:42.987Z,11.30
2022-10-07T20:32:40.945Z,11.57
2022-10-07T20:42:42.190Z,11.77
2022-10-07T20:47:42.550Z,12.88
2022-10-07T20:52:41.277Z,13.70
2022-10-07T20:57:40.578Z,14.43
2022-10-07T21:02:39.697Z,15.15
2022-10-07T21:07:41.118Z,13.95
2022-10-07T21:12:38.159Z,14.83
2022-10-07T21:17:40.066Z,13.07
2022-10-07T21:22:39.105Z,14.02
2022-10-07T21:27:39.064Z,15.80
2022-10-07T21:32:37.498Z,16.13
2022-10-07T21:37:37.108Z,16.92
2022-10-07T21:42:36.456Z,17.40
2022-10-07T21:47:36.773Z,17.20
2022-10-07T21:52:35.503Z,18.67
2022-10-07T21:57:35.564Z,19.40
2022-10-07T22:07:46.383Z,15.13
2022-10-07T22:12:50.609Z,15.98
2022-10-07T22:17:52.524Z,16.65
2022-10-07T22:22:55.518Z,17.80
2022-10-07T22:28:01.630Z,15.80
2022-10-07T22:33:06.397Z,16.70
2022-10-07T22:38:05.127Z,18.83
2022-10-07T22:43:09.391Z,18.35
2022-10-07T22:48:09.518Z,18.80
2022-10-07T22:58:04.397Z,17.02
2022-10-07T23:03:01.495Z,16.02
2022-10-07T23:07:55.797Z,16.58
2022-10-07T23:12:49.672Z,18.00
2022-10-07T23:17:43.800Z,17.13
2022-10-07T23:22:40.765Z,17.80
2022-10-07T23:27:34.969Z,17.15
2022-10-07T23:32:27.987Z,18.30
2022-10-07T23:37:22.296Z,17.05
2022-10-07T23:42:16.105Z,19.13
2022-10-07T23:47:10.229Z,18.10
2022-10-07T23:52:04.086Z,18.45
2022-10-07T23:56:57.129Z,16.88
